sensor_id;sensor_type;location;lat;lon;timestamp;P1;durP1;ratioP1;P2;durP2;ratioP2
53959;SDS011;39866;48.638;-2.020;2024-01-30T00:00:04;9.20;;;4.57;;
53959;SDS011;39866;48.638;-2.020;2024-01-30T00:02:30;6.22;;;3.97;;
53959;SDS011;39866;48.638;-2.020;2024-01-30T00:04:56;7.05;;;3.80;;
53959;SDS011;39866;48.638;-2.020;2024-01-30T00:07:22;7.10;;;3.92;;
53959;SDS011;39866;48.638;-2.020;2024-01-30T00:09:47;7.47;;;4.10;;
53959;SDS011;39866;48.638;-2.020;2024-01-30T00:12:15;8.23;;;4.05;;
53959;SDS011;39866;48.638;-2.020;2024-01-30T00:14:41;5.32;;;3.50;;
53959;SDS011;39866;48.638;-2.020;2024-01-30T00:17:10;5.93;;;3.67;;
53959;SDS011;39866;48.638;-2.020;2024-01-30T00:19:35;6.93;;;3.22;;
53959;SDS011;39866;48.638;-2.020;2024-01-30T00:22:01;7.32;;;3.70;;
53959;SDS011;39866;48.638;-2.020;2024-01-30T00:24:26;5.45;;;3.20;;
53959;SDS011;39866;48.638;-2.020;2024-01-30T00:26:51;6.78;;;3.35;;
53959;SDS011;39866;48.638;-2.020;2024-01-30T00:29:17;6.03;;;3.30;;
53959;SDS011;39866;48.638;-2.020;2024-01-30T00:31:44;5.90;;;3.20;;
53959;SDS011;39866;48.638;-2.020;2024-01-30T00:34:10;6.20;;;3.03;;
53959;SDS011;39866;48.638;-2.020;2024-01-30T00:36:35;4.63;;;2.92;;
53959;SDS011;39866;48.638;-2.020;2024-01-30T00:39:01;2.28;;;2.08;;
53959;SDS011;39866;48.638;-2.020;2024-01-30T00:41:31;4.78;;;3.10;;
53959;SDS011;39866;48.638;-2.020;2024-01-30T00:43:56;3.25;;;2.80;;
53959;SDS011;39866;48.638;-2.020;2024-01-30T00:46:21;3.95;;;2.72;;
53959;SDS011;39866;48.638;-2.020;2024-01-30T00:48:47;4.80;;;3.20;;
53959;SDS011;39866;48.638;-2.020;2024-01-30T00:51:12;3.80;;;3.17;;
53959;SDS011;39866;48.638;-2.020;2024-01-30T00:53:37;3.08;;;2.75;;
53959;SDS011;39866;48.638;-2.020;2024-01-30T00:56:03;3.72;;;2.60;;
53959;SDS011;39866;48.638;-2.020;2024-01-30T00:58:28;4.68;;;3.00;;
53959;SDS011;39866;48.638;-2.020;2024-01-30T01:00:53;3.72;;;2.70;;
53959;SDS011;39866;48.638;-2.020;2024-01-30T01:03:19;2.90;;;2.70;;
53959;SDS011;39866;48.638;-2.020;2024-01-30T01:05:44;3.17;;;2.88;;
53959;SDS011;39866;48.638;-2.020;2024-01-30T01:08:09;4.15;;;3.00;;
53959;SDS011;39866;48.638;-2.020;2024-01-30T01:10:35;4.15;;;3.25;;
53959;SDS011;39866;48.638;-2.020;2024-01-30T01:13:00;3.10;;;2.67;;
53959;SDS011;39866;48.638;-2.020;2024-01-30T01:15:25;2.80;;;2.60;;
53959;SDS011;39866;48.638;-2.020;2024-01-30T01:17:51;3.40;;;3.10;;
53959;SDS011;39866;48.638;-2.020;2024-01-30T01:20:16;3.30;;;3.03;;
53959;SDS011;39866;48.638;-2.020;2024-01-30T01:22:41;5.15;;;3.25;;
53959;SDS011;39866;48.638;-2.020;2024-01-30T01:25:07;3.80;;;3.13;;
53959;SDS011;39866;48.638;-2.020;2024-01-30T01:27:33;7.70;;;3.58;;
53959;SDS011;39866;48.638;-2.020;2024-01-30T01:29:59;6.40;;;3.65;;
53959;SDS011;39866;48.638;-2.020;2024-01-30T01:32:25;6.40;;;3.28;;
53959;SDS011;39866;48.638;-2.020;2024-01-30T01:34:51;4.35;;;3.00;;
53959;SDS011;39866;48.638;-2.020;2024-01-30T01:37:16;5.40;;;3.20;;
53959;SDS011;39866;48.638;-2.020;2024-01-30T01:39:41;3.50;;;3.03;;
53959;SDS011;39866;48.638;-2.020;2024-01-30T01:42:07;4.60;;;3.38;;
53959;SDS011;39866;48.638;-2.020;2024-01-30T01:44:32;5.57;;;3.63;;
53959;SDS011;39866;48.638;-2.020;2024-01-30T01:46:57;5.18;;;3.47;;
53959;SDS011;39866;48.638;-2.020;2024-01-30T01:49:24;3.72;;;3.13;;
53959;SDS011;39866;48.638;-2.020;2024-01-30T01:51:52;4.47;;;3.47;;
53959;SDS011;39866;48.638;-2.020;2024-01-30T01:54:21;5.05;;;3.47;;
53959;SDS011;39866;48.638;-2.020;2024-01-30T01:56:48;5.63;;;3.55;;
53959;SDS011;39866;48.638;-2.020;2024-01-30T01:59:13;4.28;;;3.03;;
53959;SDS011;39866;48.638;-2.020;2024-01-30T02:01:39;3.67;;;3.08;;
53959;SDS011;39866;48.638;-2.020;2024-01-30T02:04:08;4.90;;;3.90;;
53959;SDS011;39866;48.638;-2.020;2024-01-30T02:06:34;3.22;;;2.92;;
53959;SDS011;39866;48.638;-2.020;2024-01-30T02:08:59;5.10;;;3.47;;
53959;SDS011;39866;48.638;-2.020;2024-01-30T02:11:25;3.65;;;3.45;;
53959;SDS011;39866;48.638;-2.020;2024-01-30T02:13:50;5.55;;;4.03;;
53959;SDS011;39866;48.638;-2.020;2024-01-30T02:16:16;3.40;;;3.10;;
53959;SDS011;39866;48.638;-2.020;2024-01-30T02:18:44;3.33;;;3.03;;
53959;SDS011;39866;48.638;-2.020;2024-01-30T02:21:12;4.22;;;3.85;;
53959;SDS011;39866;48.638;-2.020;2024-01-30T02:23:39;3.30;;;3.00;;
53959;SDS011;39866;48.638;-2.020;2024-01-30T02:26:05;3.70;;;3.40;;
53959;SDS011;39866;48.638;-2.020;2024-01-30T02:28:31;4.00;;;3.70;;
53959;SDS011;39866;48.638;-2.020;2024-01-30T02:30:56;3.40;;;3.10;;
53959;SDS011;39866;48.638;-2.020;2024-01-30T02:33:22;3.95;;;3.50;;
53959;SDS011;39866;48.638;-2.020;2024-01-30T02:35:47;4.00;;;3.70;;
53959;SDS011;39866;48.638;-2.020;2024-01-30T02:38:13;4.32;;;4.03;;
53959;SDS011;39866;48.638;-2.020;2024-01-30T02:40:38;3.97;;;3.75;;
53959;SDS011;39866;48.638;-2.020;2024-01-30T02:43:03;3.70;;;3.40;;
53959;SDS011;39866;48.638;-2.020;2024-01-30T02:45:29;4.80;;;3.88;;
53959;SDS011;39866;48.638;-2.020;2024-01-30T02:47:54;4.40;;;4.00;;
53959;SDS011;39866;48.638;-2.020;2024-01-30T02:50:20;3.60;;;3.30;;
53959;SDS011;39866;48.638;-2.020;2024-01-30T02:52:45;3.88;;;3.58;;
53959;SDS011;39866;48.638;-2.020;2024-01-30T02:55:11;4.18;;;3.78;;
53959;SDS011;39866;48.638;-2.020;2024-01-30T02:57:36;3.50;;;3.28;;
53959;SDS011;39866;48.638;-2.020;2024-01-30T03:00:02;3.53;;;3.30;;
53959;SDS011;39866;48.638;-2.020;2024-01-30T03:02:29;4.35;;;4.05;;
53959;SDS011;39866;48.638;-2.020;2024-01-30T03:04:54;4.18;;;3.80;;
53959;SDS011;39866;48.638;-2.020;2024-01-30T03:07:19;4.47;;;4.07;;
53959;SDS011;39866;48.638;-2.020;2024-01-30T03:09:45;5.60;;;4.25;;
53959;SDS011;39866;48.638;-2.020;2024-01-30T03:12:10;4.13;;;3.80;;
53959;SDS011;39866;48.638;-2.020;2024-01-30T03:14:36;4.32;;;3.92;;
53959;SDS011;39866;48.638;-2.020;2024-01-30T03:17:01;4.63;;;4.22;;
53959;SDS011;39866;48.638;-2.020;2024-01-30T03:19:27;4.13;;;3.83;;
53959;SDS011;39866;48.638;-2.020;2024-01-30T03:21:53;4.18;;;3.80;;
53959;SDS011;39866;48.638;-2.020;2024-01-30T03:24:18;4.13;;;3.72;;
53959;SDS011;39866;48.638;-2.020;2024-01-30T03:26:43;3.60;;;3.35;;
53959;SDS011;39866;48.638;-2.020;2024-01-30T03:29:09;3.95;;;3.75;;
53959;SDS011;39866;48.638;-2.020;2024-01-30T03:31:34;3.90;;;3.60;;
53959;SDS011;39866;48.638;-2.020;2024-01-30T03:34:00;3.63;;;3.40;;
53959;SDS011;39866;48.638;-2.020;2024-01-30T03:36:26;4.38;;;4.00;;
53959;SDS011;39866;48.638;-2.020;2024-01-30T03:38:51;4.20;;;3.90;;
53959;SDS011;39866;48.638;-2.020;2024-01-30T03:41:16;4.43;;;4.13;;
53959;SDS011;39866;48.638;-2.020;2024-01-30T03:43:42;3.60;;;3.40;;
53959;SDS011;39866;48.638;-2.020;2024-01-30T03:46:07;3.90;;;3.70;;
53959;SDS011;39866;48.638;-2.020;2024-01-30T03:48:33;4.75;;;3.63;;
53959;SDS011;39866;48.638;-2.020;2024-01-30T03:50:58;3.40;;;3.20;;
53959;SDS011;39866;48.638;-2.020;2024-01-30T03:53:23;4.15;;;3.95;;
53959;SDS011;39866;48.638;-2.020;2024-01-30T03:55:49;3.40;;;3.20;;
53959;SDS011;39866;48.638;-2.020;2024-01-30T03:58:14;4.22;;;3.78;;
53959;SDS011;39866;48.638;-2.020;2024-01-30T04:00:40;3.90;;;3.60;;
53959;SDS011;39866;48.638;-2.020;2024-01-30T04:03:06;4.25;;;3.72;;
53959;SDS011;39866;48.638;-2.020;2024-01-30T04:05:32;3.60;;;3.40;;
53959;SDS011;39866;48.638;-2.020;2024-01-30T04:07:57;4.28;;;4.05;;
53959;SDS011;39866;48.638;-2.020;2024-01-30T04:10:23;3.70;;;3.50;;
53959;SDS011;39866;48.638;-2.020;2024-01-30T04:12:49;4.07;;;3.88;;
53959;SDS011;39866;48.638;-2.020;2024-01-30T04:15:16;3.50;;;3.30;;
53959;SDS011;39866;48.638;-2.020;2024-01-30T04:17:42;3.90;;;3.60;;
53959;SDS011;39866;48.638;-2.020;2024-01-30T04:20:07;3.63;;;3.30;;
53959;SDS011;39866;48.638;-2.020;2024-01-30T04:22:33;4.13;;;3.83;;
53959;SDS011;39866;48.638;-2.020;2024-01-30T04:24:58;3.78;;;3.47;;
53959;SDS011;39866;48.638;-2.020;2024-01-30T04:27:23;4.35;;;4.03;;
53959;SDS011;39866;48.638;-2.020;2024-01-30T04:29:49;3.80;;;3.60;;
53959;SDS011;39866;48.638;-2.020;2024-01-30T04:32:14;4.15;;;3.95;;
53959;SDS011;39866;48.638;-2.020;2024-01-30T04:34:39;3.47;;;3.28;;
53959;SDS011;39866;48.638;-2.020;2024-01-30T04:37:05;3.92;;;3.72;;
53959;SDS011;39866;48.638;-2.020;2024-01-30T04:39:30;3.80;;;3.60;;
53959;SDS011;39866;48.638;-2.020;2024-01-30T04:41:55;3.58;;;3.38;;
53959;SDS011;39866;48.638;-2.020;2024-01-30T04:44:21;3.30;;;3.10;;
53959;SDS011;39866;48.638;-2.020;2024-01-30T04:46:46;3.70;;;3.50;;
53959;SDS011;39866;48.638;-2.020;2024-01-30T04:49:11;3.58;;;3.28;;
53959;SDS011;39866;48.638;-2.020;2024-01-30T04:51:37;4.03;;;3.83;;
53959;SDS011;39866;48.638;-2.020;2024-01-30T04:54:02;3.88;;;3.58;;
53959;SDS011;39866;48.638;-2.020;2024-01-30T04:56:28;4.13;;;3.83;;
53959;SDS011;39866;48.638;-2.020;2024-01-30T04:58:53;3.60;;;3.40;;
53959;SDS011;39866;48.638;-2.020;2024-01-30T05:01:18;4.03;;;3.67;;
53959;SDS011;39866;48.638;-2.020;2024-01-30T05:03:44;4.47;;;4.18;;
53959;SDS011;39866;48.638;-2.020;2024-01-30T05:06:09;3.90;;;3.63;;
53959;SDS011;39866;48.638;-2.020;2024-01-30T05:08:34;4.20;;;3.90;;
53959;SDS011;39866;48.638;-2.020;2024-01-30T05:11:02;5.07;;;4.22;;
53959;SDS011;39866;48.638;-2.020;2024-01-30T05:13:32;3.83;;;3.60;;
53959;SDS011;39866;48.638;-2.020;2024-01-30T05:15:57;4.22;;;3.92;;
53959;SDS011;39866;48.638;-2.020;2024-01-30T05:18:23;3.83;;;3.50;;
53959;SDS011;39866;48.638;-2.020;2024-01-30T05:20:49;4.10;;;3.75;;
53959;SDS011;39866;48.638;-2.020;2024-01-30T05:23:15;3.53;;;3.33;;
53959;SDS011;39866;48.638;-2.020;2024-01-30T05:25:40;3.78;;;3.47;;
53959;SDS011;39866;48.638;-2.020;2024-01-30T05:28:06;3.83;;;3.53;;
53959;SDS011;39866;48.638;-2.020;2024-01-30T05:30:31;4.65;;;4.25;;
53959;SDS011;39866;48.638;-2.020;2024-01-30T05:32:56;3.83;;;3.53;;
53959;SDS011;39866;48.638;-2.020;2024-01-30T05:35:21;3.80;;;3.50;;
53959;SDS011;39866;48.638;-2.020;2024-01-30T05:37:50;3.78;;;3.47;;
53959;SDS011;39866;48.638;-2.020;2024-01-30T05:40:16;3.42;;;3.22;;
53959;SDS011;39866;48.638;-2.020;2024-01-30T05:42:41;4.53;;;3.90;;
53959;SDS011;39866;48.638;-2.020;2024-01-30T05:45:07;3.22;;;3.03;;
53959;SDS011;39866;48.638;-2.020;2024-01-30T05:47:33;4.53;;;4.22;;
53959;SDS011;39866;48.638;-2.020;2024-01-30T05:49:58;3.83;;;3.50;;
53959;SDS011;39866;48.638;-2.020;2024-01-30T05:52:24;4.28;;;3.97;;
53959;SDS011;39866;48.638;-2.020;2024-01-30T05:54:49;3.70;;;3.50;;
53959;SDS011;39866;48.638;-2.020;2024-01-30T05:57:14;3.70;;;3.40;;
53959;SDS011;39866;48.638;-2.020;2024-01-30T05:59:40;3.50;;;3.20;;
53959;SDS011;39866;48.638;-2.020;2024-01-30T06:02:05;3.88;;;3.67;;
53959;SDS011;39866;48.638;-2.020;2024-01-30T06:04:30;3.80;;;3.50;;
53959;SDS011;39866;48.638;-2.020;2024-01-30T06:06:56;3.40;;;3.20;;
53959;SDS011;39866;48.638;-2.020;2024-01-30T06:09:21;3.30;;;3.10;;
53959;SDS011;39866;48.638;-2.020;2024-01-30T06:11:46;3.90;;;3.60;;
53959;SDS011;39866;48.638;-2.020;2024-01-30T06:14:12;3.90;;;3.60;;
53959;SDS011;39866;48.638;-2.020;2024-01-30T06:16:37;4.47;;;4.13;;
53959;SDS011;39866;48.638;-2.020;2024-01-30T06:19:02;3.88;;;3.58;;
53959;SDS011;39866;48.638;-2.020;2024-01-30T06:21:28;4.50;;;4.10;;
53959;SDS011;39866;48.638;-2.020;2024-01-30T06:23:53;4.60;;;4.20;;
53959;SDS011;39866;48.638;-2.020;2024-01-30T06:26:18;4.10;;;3.80;;
53959;SDS011;39866;48.638;-2.020;2024-01-30T06:28:44;4.10;;;3.80;;
53959;SDS011;39866;48.638;-2.020;2024-01-30T06:31:09;4.57;;;4.28;;
53959;SDS011;39866;48.638;-2.020;2024-01-30T06:33:35;4.60;;;4.20;;
53959;SDS011;39866;48.638;-2.020;2024-01-30T06:36:00;4.10;;;3.80;;
53959;SDS011;39866;48.638;-2.020;2024-01-30T06:38:25;4.40;;;4.10;;
53959;SDS011;39866;48.638;-2.020;2024-01-30T06:40:50;5.45;;;4.50;;
53959;SDS011;39866;48.638;-2.020;2024-01-30T06:43:16;4.40;;;4.10;;
53959;SDS011;39866;48.638;-2.020;2024-01-30T06:45:41;4.18;;;3.88;;
53959;SDS011;39866;48.638;-2.020;2024-01-30T06:48:07;5.07;;;4.13;;
53959;SDS011;39866;48.638;-2.020;2024-01-30T06:50:33;3.97;;;3.72;;
53959;SDS011;39866;48.638;-2.020;2024-01-30T06:52:58;4.10;;;3.80;;
53959;SDS011;39866;48.638;-2.020;2024-01-30T06:55:24;4.43;;;4.10;;
53959;SDS011;39866;48.638;-2.020;2024-01-30T06:57:49;4.13;;;3.88;;
53959;SDS011;39866;48.638;-2.020;2024-01-30T07:00:15;4.50;;;4.10;;
53959;SDS011;39866;48.638;-2.020;2024-01-30T07:02:41;4.20;;;3.90;;
53959;SDS011;39866;48.638;-2.020;2024-01-30T07:05:06;5.10;;;4.35;;
53959;SDS011;39866;48.638;-2.020;2024-01-30T07:07:32;4.65;;;4.25;;
53959;SDS011;39866;48.638;-2.020;2024-01-30T07:09:58;4.30;;;4.00;;
53959;SDS011;39866;48.638;-2.020;2024-01-30T07:12:23;3.97;;;3.70;;
53959;SDS011;39866;48.638;-2.020;2024-01-30T07:14:50;4.53;;;4.13;;
53959;SDS011;39866;48.638;-2.020;2024-01-30T07:17:16;4.40;;;4.10;;
53959;SDS011;39866;48.638;-2.020;2024-01-30T07:19:41;4.53;;;4.13;;
53959;SDS011;39866;48.638;-2.020;2024-01-30T07:22:07;4.45;;;4.15;;
53959;SDS011;39866;48.638;-2.020;2024-01-30T07:24:33;4.45;;;4.15;;
53959;SDS011;39866;48.638;-2.020;2024-01-30T07:26:58;3.95;;;3.63;;
53959;SDS011;39866;48.638;-2.020;2024-01-30T07:29:23;4.13;;;3.83;;
53959;SDS011;39866;48.638;-2.020;2024-01-30T07:31:49;4.35;;;4.05;;
53959;SDS011;39866;48.638;-2.020;2024-01-30T07:34:14;4.25;;;3.85;;
53959;SDS011;39866;48.638;-2.020;2024-01-30T07:36:39;4.72;;;4.32;;
53959;SDS011;39866;48.638;-2.020;2024-01-30T07:39:05;4.20;;;3.85;;
53959;SDS011;39866;48.638;-2.020;2024-01-30T07:41:30;4.38;;;4.03;;
53959;SDS011;39866;48.638;-2.020;2024-01-30T07:43:55;4.57;;;4.15;;
53959;SDS011;39866;48.638;-2.020;2024-01-30T07:46:21;4.47;;;4.07;;
53959;SDS011;39866;48.638;-2.020;2024-01-30T07:48:46;4.85;;;4.35;;
53959;SDS011;39866;48.638;-2.020;2024-01-30T07:51:12;4.90;;;4.40;;
53959;SDS011;39866;48.638;-2.020;2024-01-30T07:53:37;5.13;;;4.70;;
53959;SDS011;39866;48.638;-2.020;2024-01-30T07:56:02;4.50;;;4.20;;
53959;SDS011;39866;48.638;-2.020;2024-01-30T07:58:28;4.03;;;3.70;;
53959;SDS011;39866;48.638;-2.020;2024-01-30T08:00:53;4.30;;;4.00;;
53959;SDS011;39866;48.638;-2.020;2024-01-30T08:03:18;5.30;;;4.80;;
53959;SDS011;39866;48.638;-2.020;2024-01-30T08:05:44;5.07;;;4.68;;
53959;SDS011;39866;48.638;-2.020;2024-01-30T08:08:09;4.45;;;4.10;;
53959;SDS011;39866;48.638;-2.020;2024-01-30T08:10:35;5.07;;;4.68;;
53959;SDS011;39866;48.638;-2.020;2024-01-30T08:13:01;5.32;;;4.22;;
53959;SDS011;39866;48.638;-2.020;2024-01-30T08:15:26;5.25;;;4.75;;
53959;SDS011;39866;48.638;-2.020;2024-01-30T08:17:52;4.85;;;4.45;;
53959;SDS011;39866;48.638;-2.020;2024-01-30T08:20:22;5.18;;;4.78;;
53959;SDS011;39866;48.638;-2.020;2024-01-30T08:22:48;4.13;;;3.83;;
53959;SDS011;39866;48.638;-2.020;2024-01-30T08:25:13;4.63;;;4.28;;
53959;SDS011;39866;48.638;-2.020;2024-01-30T08:27:39;4.45;;;4.07;;
53959;SDS011;39866;48.638;-2.020;2024-01-30T08:30:08;4.03;;;3.70;;
53959;SDS011;39866;48.638;-2.020;2024-01-30T08:32:34;4.63;;;4.22;;
53959;SDS011;39866;48.638;-2.020;2024-01-30T08:34:59;4.18;;;3.88;;
53959;SDS011;39866;48.638;-2.020;2024-01-30T08:37:26;4.03;;;3.67;;
53959;SDS011;39866;48.638;-2.020;2024-01-30T08:39:51;4.03;;;3.63;;
53959;SDS011;39866;48.638;-2.020;2024-01-30T08:42:17;4.65;;;4.25;;
53959;SDS011;39866;48.638;-2.020;2024-01-30T08:44:47;4.28;;;3.90;;
53959;SDS011;39866;48.638;-2.020;2024-01-30T08:47:12;4.97;;;4.47;;
53959;SDS011;39866;48.638;-2.020;2024-01-30T08:49:37;5.82;;;4.60;;
53959;SDS011;39866;48.638;-2.020;2024-01-30T08:52:03;6.22;;;4.38;;
53959;SDS011;39866;48.638;-2.020;2024-01-30T08:54:28;4.57;;;4.20;;
53959;SDS011;39866;48.638;-2.020;2024-01-30T08:56:54;6.20;;;5.68;;
53959;SDS011;39866;48.638;-2.020;2024-01-30T08:59:21;7.63;;;6.70;;
53959;SDS011;39866;48.638;-2.020;2024-01-30T09:01:46;7.55;;;6.32;;
53959;SDS011;39866;48.638;-2.020;2024-01-30T09:04:12;5.55;;;5.05;;
53959;SDS011;39866;48.638;-2.020;2024-01-30T09:06:38;5.57;;;5.18;;
53959;SDS011;39866;48.638;-2.020;2024-01-30T09:09:04;5.65;;;5.03;;
53959;SDS011;39866;48.638;-2.020;2024-01-30T09:11:30;5.30;;;4.90;;
53959;SDS011;39866;48.638;-2.020;2024-01-30T09:13:55;5.60;;;5.10;;
53959;SDS011;39866;48.638;-2.020;2024-01-30T09:16:20;5.38;;;4.97;;
53959;SDS011;39866;48.638;-2.020;2024-01-30T09:18:45;7.03;;;5.18;;
53959;SDS011;39866;48.638;-2.020;2024-01-30T09:21:11;8.48;;;5.20;;
53959;SDS011;39866;48.638;-2.020;2024-01-30T09:23:36;5.18;;;4.75;;
53959;SDS011;39866;48.638;-2.020;2024-01-30T09:26:01;5.15;;;4.75;;
53959;SDS011;39866;48.638;-2.020;2024-01-30T09:28:27;5.45;;;5.00;;
53959;SDS011;39866;48.638;-2.020;2024-01-30T09:30:52;5.32;;;4.40;;
53959;SDS011;39866;48.638;-2.020;2024-01-30T09:33:17;5.90;;;4.95;;
53959;SDS011;39866;48.638;-2.020;2024-01-30T09:35:43;4.78;;;4.28;;
53959;SDS011;39866;48.638;-2.020;2024-01-30T09:38:08;6.03;;;4.93;;
53959;SDS011;39866;48.638;-2.020;2024-01-30T09:40:33;5.43;;;4.63;;
53959;SDS011;39866;48.638;-2.020;2024-01-30T09:42:59;4.30;;;3.90;;
53959;SDS011;39866;48.638;-2.020;2024-01-30T09:45:25;5.47;;;4.85;;
53959;SDS011;39866;48.638;-2.020;2024-01-30T09:47:51;4.80;;;4.40;;
53959;SDS011;39866;48.638;-2.020;2024-01-30T09:50:19;4.63;;;4.10;;
53959;SDS011;39866;48.638;-2.020;2024-01-30T09:52:45;4.68;;;4.28;;
53959;SDS011;39866;48.638;-2.020;2024-01-30T09:55:11;5.72;;;4.22;;
53959;SDS011;39866;48.638;-2.020;2024-01-30T09:57:37;5.28;;;4.75;;
53959;SDS011;39866;48.638;-2.020;2024-01-30T10:00:06;4.38;;;4.07;;
53959;SDS011;39866;48.638;-2.020;2024-01-30T10:02:33;4.35;;;4.03;;
53959;SDS011;39866;48.638;-2.020;2024-01-30T10:04:59;5.03;;;4.63;;
53959;SDS011;39866;48.638;-2.020;2024-01-30T10:07:25;4.32;;;4.00;;
53959;SDS011;39866;48.638;-2.020;2024-01-30T10:09:51;6.75;;;4.38;;
53959;SDS011;39866;48.638;-2.020;2024-01-30T10:12:18;5.07;;;4.28;;
53959;SDS011;39866;48.638;-2.020;2024-01-30T10:14:44;4.43;;;4.03;;
53959;SDS011;39866;48.638;-2.020;2024-01-30T10:17:10;4.15;;;3.75;;
53959;SDS011;39866;48.638;-2.020;2024-01-30T10:19:37;5.55;;;4.25;;
53959;SDS011;39866;48.638;-2.020;2024-01-30T10:22:03;4.00;;;3.60;;
53959;SDS011;39866;48.638;-2.020;2024-01-30T10:24:29;4.65;;;4.07;;
53959;SDS011;39866;48.638;-2.020;2024-01-30T10:26:55;5.70;;;4.30;;
53959;SDS011;39866;48.638;-2.020;2024-01-30T10:29:20;5.07;;;4.68;;
53959;SDS011;39866;48.638;-2.020;2024-01-30T10:31:46;6.32;;;4.22;;
53959;SDS011;39866;48.638;-2.020;2024-01-30T10:34:12;5.57;;;4.40;;
53959;SDS011;39866;48.638;-2.020;2024-01-30T10:36:41;6.80;;;4.57;;
53959;SDS011;39866;48.638;-2.020;2024-01-30T10:39:11;4.65;;;4.15;;
53959;SDS011;39866;48.638;-2.020;2024-01-30T10:41:45;5.28;;;4.32;;
53959;SDS011;39866;48.638;-2.020;2024-01-30T10:44:13;7.30;;;4.40;;
53959;SDS011;39866;48.638;-2.020;2024-01-30T10:46:45;4.75;;;3.97;;
53959;SDS011;39866;48.638;-2.020;2024-01-30T10:49:19;7.38;;;4.50;;
53959;SDS011;39866;48.638;-2.020;2024-01-30T10:51:46;5.72;;;4.38;;
53959;SDS011;39866;48.638;-2.020;2024-01-30T10:54:14;5.85;;;4.43;;
53959;SDS011;39866;48.638;-2.020;2024-01-30T10:56:41;4.60;;;4.20;;
53959;SDS011;39866;48.638;-2.020;2024-01-30T10:59:07;5.28;;;4.32;;
53959;SDS011;39866;48.638;-2.020;2024-01-30T11:01:34;5.47;;;3.95;;
53959;SDS011;39866;48.638;-2.020;2024-01-30T11:04:00;4.28;;;3.80;;
53959;SDS011;39866;48.638;-2.020;2024-01-30T11:06:25;7.63;;;4.35;;
53959;SDS011;39866;48.638;-2.020;2024-01-30T11:09:03;7.28;;;4.20;;
53959;SDS011;39866;48.638;-2.020;2024-01-30T11:11:47;6.25;;;3.85;;
53959;SDS011;39866;48.638;-2.020;2024-01-30T11:14:16;4.85;;;3.92;;
53959;SDS011;39866;48.638;-2.020;2024-01-30T11:16:48;5.65;;;3.97;;
53959;SDS011;39866;48.638;-2.020;2024-01-30T11:19:14;5.57;;;4.18;;
53959;SDS011;39866;48.638;-2.020;2024-01-30T11:21:42;6.65;;;4.22;;
53959;SDS011;39866;48.638;-2.020;2024-01-30T11:24:07;5.45;;;3.70;;
53959;SDS011;39866;48.638;-2.020;2024-01-30T11:26:33;7.60;;;4.32;;
53959;SDS011;39866;48.638;-2.020;2024-01-30T11:28:59;4.60;;;4.07;;
53959;SDS011;39866;48.638;-2.020;2024-01-30T11:31:28;5.55;;;4.20;;
53959;SDS011;39866;48.638;-2.020;2024-01-30T11:33:54;6.82;;;4.22;;
53959;SDS011;39866;48.638;-2.020;2024-01-30T11:36:22;6.30;;;4.72;;
53959;SDS011;39866;48.638;-2.020;2024-01-30T11:38:50;7.57;;;4.95;;
53959;SDS011;39866;48.638;-2.020;2024-01-30T11:41:16;6.00;;;4.05;;
53959;SDS011;39866;48.638;-2.020;2024-01-30T11:43:42;11.27;;;5.60;;
53959;SDS011;39866;48.638;-2.020;2024-01-30T11:46:08;7.20;;;4.47;;
53959;SDS011;39866;48.638;-2.020;2024-01-30T11:48:35;6.95;;;4.70;;
53959;SDS011;39866;48.638;-2.020;2024-01-30T11:51:00;5.10;;;4.40;;
53959;SDS011;39866;48.638;-2.020;2024-01-30T11:53:26;6.05;;;5.05;;
53959;SDS011;39866;48.638;-2.020;2024-01-30T11:55:52;7.45;;;4.70;;
53959;SDS011;39866;48.638;-2.020;2024-01-30T11:58:17;6.63;;;4.18;;
53959;SDS011;39866;48.638;-2.020;2024-01-30T12:00:43;8.13;;;4.85;;
53959;SDS011;39866;48.638;-2.020;2024-01-30T12:03:18;8.48;;;4.38;;
53959;SDS011;39866;48.638;-2.020;2024-01-30T12:05:43;5.93;;;4.25;;
53959;SDS011;39866;48.638;-2.020;2024-01-30T12:08:14;6.88;;;5.05;;
53959;SDS011;39866;48.638;-2.020;2024-01-30T12:10:41;7.95;;;4.40;;
53959;SDS011;39866;48.638;-2.020;2024-01-30T12:13:06;6.43;;;4.30;;
53959;SDS011;39866;48.638;-2.020;2024-01-30T12:15:32;5.32;;;4.60;;
53959;SDS011;39866;48.638;-2.020;2024-01-30T12:18:04;5.97;;;4.88;;
53959;SDS011;39866;48.638;-2.020;2024-01-30T12:20:31;7.65;;;4.35;;
53959;SDS011;39866;48.638;-2.020;2024-01-30T12:22:56;5.53;;;4.80;;
53959;SDS011;39866;48.638;-2.020;2024-01-30T12:25:21;6.13;;;4.78;;
53959;SDS011;39866;48.638;-2.020;2024-01-30T12:27:49;4.95;;;4.55;;
53959;SDS011;39866;48.638;-2.020;2024-01-30T12:30:16;6.07;;;4.10;;
53959;SDS011;39866;48.638;-2.020;2024-01-30T12:32:43;6.03;;;5.10;;
53959;SDS011;39866;48.638;-2.020;2024-01-30T12:35:10;6.50;;;4.30;;
53959;SDS011;39866;48.638;-2.020;2024-01-30T12:37:35;6.78;;;4.35;;
53959;SDS011;39866;48.638;-2.020;2024-01-30T12:40:01;9.20;;;5.97;;
53959;SDS011;39866;48.638;-2.020;2024-01-30T12:42:27;7.28;;;5.13;;
53959;SDS011;39866;48.638;-2.020;2024-01-30T12:44:52;5.20;;;4.68;;
53959;SDS011;39866;48.638;-2.020;2024-01-30T12:47:18;7.57;;;5.50;;
53959;SDS011;39866;48.638;-2.020;2024-01-30T12:49:43;5.43;;;4.90;;
53959;SDS011;39866;48.638;-2.020;2024-01-30T12:52:10;5.47;;;4.65;;
53959;SDS011;39866;48.638;-2.020;2024-01-30T12:54:37;5.25;;;4.75;;
53959;SDS011;39866;48.638;-2.020;2024-01-30T12:57:02;4.50;;;4.00;;
53959;SDS011;39866;48.638;-2.020;2024-01-30T12:59:28;5.72;;;4.93;;
53959;SDS011;39866;48.638;-2.020;2024-01-30T13:01:53;8.02;;;5.20;;
53959;SDS011;39866;48.638;-2.020;2024-01-30T13:04:18;8.07;;;4.88;;
53959;SDS011;39866;48.638;-2.020;2024-01-30T13:06:44;7.72;;;4.32;;
53959;SDS011;39866;48.638;-2.020;2024-01-30T13:09:09;6.53;;;4.32;;
53959;SDS011;39866;48.638;-2.020;2024-01-30T13:11:34;5.78;;;4.38;;
53959;SDS011;39866;48.638;-2.020;2024-01-30T13:14:00;4.63;;;3.95;;
53959;SDS011;39866;48.638;-2.020;2024-01-30T13:16:26;5.15;;;4.65;;
53959;SDS011;39866;48.638;-2.020;2024-01-30T13:18:51;8.38;;;4.75;;
53959;SDS011;39866;48.638;-2.020;2024-01-30T13:21:16;5.40;;;4.28;;
53959;SDS011;39866;48.638;-2.020;2024-01-30T13:23:42;6.60;;;4.43;;
53959;SDS011;39866;48.638;-2.020;2024-01-30T13:26:08;6.32;;;4.80;;
53959;SDS011;39866;48.638;-2.020;2024-01-30T13:28:33;8.18;;;5.00;;
53959;SDS011;39866;48.638;-2.020;2024-01-30T13:30:58;5.20;;;4.53;;
53959;SDS011;39866;48.638;-2.020;2024-01-30T13:33:24;8.18;;;4.72;;
53959;SDS011;39866;48.638;-2.020;2024-01-30T13:35:49;7.80;;;4.35;;
53959;SDS011;39866;48.638;-2.020;2024-01-30T13:38:15;5.72;;;4.20;;
53959;SDS011;39866;48.638;-2.020;2024-01-30T13:40:40;8.15;;;5.10;;
53959;SDS011;39866;48.638;-2.020;2024-01-30T13:43:06;4.90;;;4.50;;
53959;SDS011;39866;48.638;-2.020;2024-01-30T13:45:31;4.90;;;4.40;;
53959;SDS011;39866;48.638;-2.020;2024-01-30T13:47:57;6.95;;;4.00;;
53959;SDS011;39866;48.638;-2.020;2024-01-30T13:50:22;6.35;;;4.22;;
53959;SDS011;39866;48.638;-2.020;2024-01-30T13:52:47;9.30;;;5.00;;
53959;SDS011;39866;48.638;-2.020;2024-01-30T13:55:13;6.30;;;5.13;;
53959;SDS011;39866;48.638;-2.020;2024-01-30T13:57:38;6.28;;;4.47;;
53959;SDS011;39866;48.638;-2.020;2024-01-30T14:00:04;5.90;;;4.78;;
53959;SDS011;39866;48.638;-2.020;2024-01-30T14:02:32;5.43;;;4.28;;
53959;SDS011;39866;48.638;-2.020;2024-01-30T14:04:58;6.90;;;4.95;;
53959;SDS011;39866;48.638;-2.020;2024-01-30T14:07:23;5.95;;;4.60;;
53959;SDS011;39866;48.638;-2.020;2024-01-30T14:09:49;5.63;;;5.03;;
53959;SDS011;39866;48.638;-2.020;2024-01-30T14:12:14;8.07;;;4.60;;
53959;SDS011;39866;48.638;-2.020;2024-01-30T14:14:40;5.20;;;4.00;;
53959;SDS011;39866;48.638;-2.020;2024-01-30T14:17:06;7.30;;;4.82;;
53959;SDS011;39866;48.638;-2.020;2024-01-30T14:19:34;8.98;;;4.60;;
53959;SDS011;39866;48.638;-2.020;2024-01-30T14:22:00;6.53;;;4.10;;
53959;SDS011;39866;48.638;-2.020;2024-01-30T14:24:26;4.45;;;4.00;;